Time;durP1;ratioP1;P1;durP2;ratioP2;P2;SDS_P1;SDS_P2;PMS_P1;PMS_P2;Temp;Humidity;BMP_temperature;BMP_pressure;BME280_temperature;BME280_humidity;BME280_pressure;Samples;Min_cycle;Max_cycle;Signal;HPM_P1;HPM_P2
2023/09/17 00:01:58;;;;;;;;;;;;;;;18.55;63.79;97896.13;5029660;28;19925;-61
2023/09/17 00:04:26;;;;;;;;;;;;;;;18.51;63.85;97898.00;5027206;28;19926;-61
2023/09/17 00:06:54;;;;;;;;;;;;;;;18.45;64.24;97893.97;5029588;28;19925;-61
2023/09/17 00:09:21;;;;;;;;;;;;;;;18.41;64.02;97893.88;5025709;28;19933;-62
2023/09/17 00:11:49;;;;;;;;;;;;;;;18.39;63.97;97889.91;5029945;28;19940;-62
2023/09/17 00:14:18;;;;;;;;;;;;;;;18.36;64.05;97896.91;5026077;28;19979;-62
2023/09/17 00:16:46;;;;;;;;;;;;;;;18.36;63.93;97901.63;5025302;28;20378;-62
2023/09/17 00:19:14;;;;;;;;;;;;;;;18.31;64.23;97903.50;5023054;28;19932;-61
2023/09/17 00:21:42;;;;;;;;;;;;;;;18.29;64.16;97908.59;5026252;28;20328;-61
2023/09/17 00:24:10;;;;;;;;;;;;;;;18.30;64.25;97901.91;5030349;28;19925;-62
2023/09/17 00:26:37;;;;;;;;;;;;;;;18.28;64.44;97904.25;5025556;28;19925;-62
2023/09/17 00:29:07;;;;;;;;;;;;;;;18.28;64.36;97900.69;5020235;28;19936;-61
2023/09/17 00:31:37;;;;;;;;;;;;;;;18.31;64.44;97910.97;5010646;28;20039;-62
2023/09/17 00:34:08;;;;;;;;;;;;;;;18.24;64.57;97906.13;5027854;28;19932;-61
2023/09/17 00:36:37;;;;;;;;;;;;;;;18.23;64.50;97903.75;5017467;28;19937;-61
2023/09/17 00:39:05;;;;;;;;;;;;;;;18.25;64.37;97902.22;5006378;28;19933;-62
2023/09/17 00:41:32;;;;;;;;;;;;;;;18.23;64.22;97910.03;5030922;28;19925;-61
2023/09/17 00:44:00;;;;;;;;;;;;;;;18.22;64.41;97908.44;5009447;28;19992;-62
2023/09/17 00:46:28;;;;;;;;;;;;;;;18.21;64.58;97906.81;5027602;28;19933;-61
2023/09/17 00:48:57;;;;;;;;;;;;;;;18.18;64.50;97904.03;5004433;28;19948;-61
2023/09/17 00:51:26;;;;;;;;;;;;;;;18.16;64.70;97898.06;5018658;28;19925;-61
2023/09/17 00:53:54;;;;;;;;;;;;;;;18.13;64.43;97899.59;5027645;28;19931;-61
2023/09/17 00:56:21;;;;;;;;;;;;;;;18.13;64.55;97901.56;5030085;28;19925;-62
2023/09/17 00:58:50;;;;;;;;;;;;;;;18.10;64.57;97905.81;5030495;28;19941;-61
2023/09/17 01:01:19;;;;;;;;;;;;;;;18.12;64.56;97902.72;5009352;28;19925;-61
2023/09/17 01:03:47;;;;;;;;;;;;;;;18.08;64.76;97904.59;5009960;28;19926;-62
2023/09/17 01:06:16;;;;;;;;;;;;;;;18.04;65.08;97893.50;5029529;28;19929;-61
2023/09/17 01:08:44;;;;;;;;;;;;;;;18.01;64.69;97891.50;5023363;28;19972;-61
2023/09/17 01:11:12;;;;;;;;;;;;;;;17.94;65.10;97880.34;5029473;28;19933;-61
2023/09/17 01:13:49;;;;;;;;;;;;;;;17.92;65.10;97882.66;5027224;28;20019;-61
2023/09/17 01:16:17;;;;;;;;;;;;;;;17.87;65.04;97885.69;5011132;28;19929;-61
2023/09/17 01:18:45;;;;;;;;;;;;;;;17.91;65.06;97886.56;5023620;28;19932;-61
2023/09/17 01:21:13;;;;;;;;;;;;;;;17.92;64.81;97883.47;5026294;28;19929;-61
2023/09/17 01:23:46;;;;;;;;;;;;;;;17.95;64.64;97876.44;5028960;28;19939;-62
2023/09/17 01:26:18;;;;;;;;;;;;;;;17.96;64.94;97878.03;5002999;28;19936;-61
2023/09/17 01:28:48;;;;;;;;;;;;;;;17.94;64.85;97867.38;5028043;28;20276;-61
2023/09/17 01:31:16;;;;;;;;;;;;;;;17.97;64.79;97869.44;5011842;28;20383;-61
2023/09/17 01:33:43;;;;;;;;;;;;;;;17.97;64.62;97869.44;5005700;28;20375;-61
2023/09/17 01:36:12;;;;;;;;;;;;;;;17.93;64.54;97873.25;5001949;28;19978;-61
2023/09/17 01:38:41;;;;;;;;;;;;;;;18.00;66.10;97868.72;5006148;28;19925;-61
2023/09/17 01:41:10;;;;;;;;;;;;;;;18.00;65.19;97867.91;5029528;28;19925;-61
2023/09/17 01:43:40;;;;;;;;;;;;;;;17.93;64.73;97867.75;5026069;28;19931;-61
2023/09/17 01:46:10;;;;;;;;;;;;;;;17.90;64.57;97872.03;5027632;28;19937;-61
2023/09/17 01:48:37;;;;;;;;;;;;;;;17.80;65.01;97869.84;5022255;28;19987;-61
2023/09/17 01:51:05;;;;;;;;;;;;;;;17.74;65.20;97865.81;5033607;28;19929;-62
2023/09/17 01:53:33;;;;;;;;;;;;;;;17.68;65.25;97867.97;5015321;28;19929;-61
2023/09/17 01:56:01;;;;;;;;;;;;;;;17.63;65.54;97873.78;5014707;28;20039;-61
2023/09/17 01:58:29;;;;;;;;;;;;;;;17.63;65.40;97876.53;5005665;28;20020;-61
2023/09/17 02:00:57;;;;;;;;;;;;;;;17.63;65.42;97876.53;5013778;28;19925;-61
2023/09/17 02:03:28;;;;;;;;;;;;;;;17.61;65.45;97876.06;5027111;28;19929;-62
2023/09/17 02:05:57;;;;;;;;;;;;;;;17.62;66.28;97874.91;5033995;28;19925;-61
2023/09/17 02:08:25;;;;;;;;;;;;;;;17.61;65.57;97878.81;5032465;28;19928;-61
2023/09/17 02:10:52;;;;;;;;;;;;;;;17.61;65.48;97887.06;5025603;28;20416;-62
2023/09/17 02:13:22;;;;;;;;;;;;;;;17.59;65.52;97891.34;5031370;28;21380;-61
2023/09/17 02:15:50;;;;;;;;;;;;;;;17.62;65.43;97893.34;5027622;28;19940;-62
2023/09/17 02:18:18;;;;;;;;;;;;;;;17.60;65.35;97882.72;5001206;28;20375;-62
2023/09/17 02:20:47;;;;;;;;;;;;;;;17.57;65.44;97883.44;5015567;28;19932;-61
2023/09/17 02:23:17;;;;;;;;;;;;;;;17.53;65.63;97886.13;5030971;28;19925;-61
2023/09/17 02:25:45;;;;;;;;;;;;;;;17.50;65.63;97888.75;5005111;28;19925;-61
2023/09/17 02:28:13;;;;;;;;;;;;;;;17.48;65.70;97883.63;5038770;28;19978;-61
2023/09/17 02:30:41;;;;;;;;;;;;;;;17.50;65.76;97888.75;5031247;28;20344;-61
2023/09/17 02:33:10;;;;;;;;;;;;;;;17.51;65.80;97890.34;5023049;28;19936;-61
2023/09/17 02:35:39;;;;;;;;;;;;;;;17.53;65.75;97890.81;5022605;28;20003;-61
2023/09/17 02:38:08;;;;;;;;;;;;;;;17.57;65.53;97899.13;5010054;28;20503;-61
2023/09/17 02:40:36;;;;;;;;;;;;;;;17.55;65.63;97894.00;5028843;28;20420;-61
2023/09/17 02:43:04;;;;;;;;;;;;;;;17.54;65.74;97903.38;5027016;28;19956;-61
2023/09/17 02:45:32;;;;;;;;;;;;;;;17.55;65.80;97896.72;5014546;28;19972;-61
2023/09/17 02:48:00;;;;;;;;;;;;;;;17.57;65.81;97899.91;5014606;28;19932;-61
2023/09/17 02:50:27;;;;;;;;;;;;;;;17.56;65.89;97903.81;5010285;28;20015;-61
2023/09/17 02:52:55;;;;;;;;;;;;;;;17.52;65.89;97905.69;5031339;28;19929;-61
2023/09/17 02:55:25;;;;;;;;;;;;;;;17.51;66.15;97904.09;5018290;28;20310;-61
2023/09/17 02:57:53;;;;;;;;;;;;;;;17.49;66.24;97909.16;5032444;28;19934;-61
2023/09/17 03:00:22;;;;;;;;;;;;;;;17.53;66.30;97908.09;5031219;28;20283;-61
2023/09/17 03:02:54;;;;;;;;;;;;;;;17.57;66.23;97913.63;5025423;28;19925;-61
2023/09/17 03:05:22;;;;;;;;;;;;;;;17.58;66.36;97915.25;5021543;28;19925;-61
2023/09/17 03:07:50;;;;;;;;;;;;;;;17.59;66.21;97914.09;5013824;28;19925;-61
2023/09/17 03:10:18;;;;;;;;;;;;;;;17.60;66.08;97920.38;5036440;28;20330;-61
2023/09/17 03:12:49;;;;;;;;;;;;;;;17.61;66.11;97920.03;5031171;28;19936;-61
2023/09/17 03:15:17;;;;;;;;;;;;;;;17.65;65.96;97915.41;5011256;28;20426;-61
2023/09/17 03:17:45;;;;;;;;;;;;;;;17.67;65.80;97921.34;5027335;28;19940;-61
2023/09/17 03:20:22;;;;;;;;;;;;;;;17.70;65.71;97926.13;5021821;28;19925;-61
2023/09/17 03:22:49;;;;;;;;;;;;;;;17.69;65.96;97924.53;5021803;28;19929;-61
2023/09/17 03:25:18;;;;;;;;;;;;;;;17.73;65.82;97925.44;5010946;28;19963;-61
2023/09/17 03:27:48;;;;;;;;;;;;;;;17.74;65.81;97924.28;5012586;28;19929;-61
2023/09/17 03:30:16;;;;;;;;;;;;;;;17.71;65.91;97924.19;5029756;28;20374;-61
2023/09/17 03:32:44;;;;;;;;;;;;;;;17.64;66.15;97924.81;5029776;28;19936;-61
2023/09/17 03:35:30;;;;;;;;;;;;;;;17.62;66.11;97924.34;5008863;28;19961;-61
2023/09/17 03:37:58;;;;;;;;;;;;;;;17.65;66.04;97922.88;5011502;28;19933;-61
2023/09/17 03:40:26;;;;;;;;;;;;;;;17.65;65.86;97920.13;5006509;28;20012;-61
2023/09/17 03:42:55;;;;;;;;;;;;;;;17.68;65.86;97922.13;5029588;28;19935;-61
2023/09/17 03:45:23;;;;;;;;;;;;;;;17.70;65.67;97928.09;5028712;28;19925;-62
2023/09/17 03:47:52;;;;;;;;;;;;;;;17.69;65.82;97927.28;5013316;28;20382;-61
2023/09/17 03:50:21;;;;;;;;;;;;;;;17.66;65.96;97930.75;5009612;28;19925;-62
2023/09/17 03:52:49;;;;;;;;;;;;;;;17.58;66.11;97920.75;5030898;28;19929;-61
2023/09/17 03:55:18;;;;;;;;;;;;;;;17.56;66.02;97923.03;5010893;28;19932;-61
2023/09/17 03:57:46;;;;;;;;;;;;;;;17.57;66.03;97924.63;5013941;28;19987;-61
2023/09/17 04:00:16;;;;;;;;;;;;;;;17.58;66.06;97926.25;5005799;28;19951;-61
2023/09/17 04:02:45;;;;;;;;;;;;;;;17.54;66.04;97923.41;5006122;28;20382;-61
2023/09/17 04:05:14;;;;;;;;;;;;;;;17.57;66.09;97924.63;5009956;28;19929;-61
2023/09/17 04:07:42;;;;;;;;;;;;;;;17.57;66.12;97926.59;5000749;28;19925;-61
2023/09/17 04:10:10;;;;;;;;;;;;;;;17.59;66.19;97927.84;5012563;28;20354;-61
2023/09/17 04:12:39;;;;;;;;;;;;;;;17.58;65.93;97922.69;5010717;28;19948;-62
2023/09/17 04:15:13;;;;;;;;;;;;;;;17.57;65.84;97923.84;5013017;28;19939;-61
2023/09/17 04:17:42;;;;;;;;;;;;;;;17.57;65.89;97918.34;5030950;28;19940;-61
2023/09/17 04:20:13;;;;;;;;;;;;;;;17.52;65.99;97916.66;5028007;28;20310;-61
2023/09/17 04:22:42;;;;;;;;;;;;;;;17.52;65.96;97919.41;5008319;28;20395;-61
2023/09/17 04:25:10;;;;;;;;;;;;;;;17.52;66.10;97925.72;5008568;28;19925;-61
2023/09/17 04:27:41;;;;;;;;;;;;;;;17.54;65.87;97925.38;4999359;28;19936;-61
2023/09/17 04:30:11;;;;;;;;;;;;;;;17.48;66.04;97918.56;5006116;28;19929;-61
2023/09/17 04:32:39;;;;;;;;;;;;;;;17.50;65.95;97916.22;5022423;28;19932;-61
2023/09/17 04:35:09;;;;;;;;;;;;;;;17.51;66.58;97912.31;5010870;28;19936;-61
2023/09/17 04:37:37;;;;;;;;;;;;;;;17.53;66.11;97907.28;5010182;28;19929;-61
2023/09/17 04:40:08;;;;;;;;;;;;;;;17.54;65.73;97919.88;5008481;28;20422;-61
2023/09/17 04:42:38;;;;;;;;;;;;;;;17.54;65.59;97922.63;5005921;28;19925;-61
2023/09/17 04:45:08;;;;;;;;;;;;;;;17.72;66.53;97925.75;5010392;28;19925;-61
2023/09/17 04:47:38;;;;;;;;;;;;;;;17.77;65.31;97926.31;5022864;28;20397;-61
2023/09/17 04:50:08;;;;;;;;;;;;;;;17.69;65.21;97926.50;5010421;28;19929;-61
2023/09/17 04:52:37;;;;;;;;;;;;;;;17.70;65.11;97928.09;5008937;28;19929;-61
2023/09/17 04:55:06;;;;;;;;;;;;;;;17.74;65.69;97923.50;5010548;28;19937;-61
2023/09/17 04:57:35;;;;;;;;;;;;;;;17.66;64.85;97925.25;5005180;28;19933;-61
2023/09/17 05:00:10;;;;;;;;;;;;;;;17.61;64.84;97922.78;5028090;28;19925;-61
2023/09/17 05:02:39;;;;;;;;;;;;;;;17.57;65.03;97923.84;5026025;28;19925;-60
2023/09/17 05:05:09;;;;;;;;;;;;;;;17.52;65.04;97920.22;5003351;28;20379;-61
2023/09/17 05:07:40;;;;;;;;;;;;;;;17.49;65.29;97925.63;4997978;28;19929;-61
2023/09/17 05:10:09;;;;;;;;;;;;;;;17.42;65.39;97923.53;5002754;28;19948;-61
2023/09/17 05:12:37;;;;;;;;;;;;;;;17.45;65.40;97933.78;5011295;28;20359;-60
2023/09/17 05:15:05;;;;;;;;;;;;;;;17.36;65.67;97930.41;5026261;28;19970;-61
2023/09/17 05:17:34;;;;;;;;;;;;;;;17.35;65.76;97931.56;5008193;28;19925;-61
2023/09/17 05:20:06;;;;;;;;;;;;;;;17.34;65.74;97934.69;5003074;28;19976;-61
2023/09/17 05:22:34;;;;;;;;;;;;;;;17.34;65.95;97931.94;5003908;28;19933;-61
2023/09/17 05:25:06;;;;;;;;;;;;;;;17.36;65.90;97940.59;5026245;28;20383;-61
2023/09/17 05:27:35;;;;;;;;;;;;;;;17.37;66.16;97936.72;5005341;28;19931;-61
2023/09/17 05:30:03;;;;;;;;;;;;;;;17.39;65.81;97937.16;5007894;28;19929;-60
2023/09/17 05:32:31;;;;;;;;;;;;;;;17.35;66.25;97936.25;5007344;28;19925;-60
2023/09/17 05:34:59;;;;;;;;;;;;;;;17.34;66.18;97945.66;5010593;28;19960;-61
2023/09/17 05:37:27;;;;;;;;;;;;;;;17.35;66.20;97942.56;5028746;28;19971;-61
2023/09/17 05:39:56;;;;;;;;;;;;;;;17.29;66.37;97953.00;4998673;28;19933;-61
2023/09/17 05:42:25;;;;;;;;;;;;;;;17.25;66.57;97962.31;5004407;28;19933;-61
2023/09/17 05:44:53;;;;;;;;;;;;;;;17.23;66.58;97962.66;5003350;28;19967;-61
2023/09/17 05:47:23;;;;;;;;;;;;;;;17.24;66.36;97964.25;5010230;28;19991;-61
2023/09/17 05:49:51;;;;;;;;;;;;;;;17.24;66.47;97958.75;5007222;28;19933;-60
2023/09/17 05:52:21;;;;;;;;;;;;;;;17.25;66.53;97976.03;5017700;28;19940;-61
2023/09/17 05:54:48;;;;;;;;;;;;;;;17.26;66.68;97972.16;5010400;28;19925;-61
2023/09/17 05:57:17;;;;;;;;;;;;;;;17.28;66.62;97970.63;5003342;28;19933;-60
2023/09/17 05:59:46;;;;;;;;;;;;;;;17.33;66.81;97966.84;5007866;28;19952;-61
2023/09/17 06:02:15;;;;;;;;;;;;;;;17.29;66.70;97955.75;5009201;28;19926;-60
2023/09/17 06:04:47;;;;;;;;;;;;;;;17.29;66.83;97955.75;5009199;28;19929;-60
2023/09/17 06:07:15;;;;;;;;;;;;;;;17.35;66.62;97955.47;5007730;28;19929;-61
2023/09/17 06:09:43;;;;;;;;;;;;;;;17.39;66.66;97953.63;5006788;28;19936;-60
2023/09/17 06:12:11;;;;;;;;;;;;;;;17.46;66.67;97953.78;5005537;28;19925;-61
2023/09/17 06:14:40;;;;;;;;;;;;;;;17.47;66.62;97963.63;5011345;28;19940;-61
2023/09/17 06:17:09;;;;;;;;;;;;;;;17.51;66.49;97962.56;5002165;28;19935;-60
2023/09/17 06:19:37;;;;;;;;;;;;;;;17.56;66.31;97958.75;5021107;28;20058;-61
2023/09/17 06:22:05;;;;;;;;;;;;;;;17.61;66.24;97961.22;5023537;28;20058;-61
2023/09/17 06:24:33;;;;;;;;;;;;;;;17.66;66.20;97971.94;5007333;28;20291;-61
2023/09/17 06:27:01;;;;;;;;;;;;;;;17.66;66.19;97974.69;5019724;28;19925;-60
2023/09/17 06:29:29;;;;;;;;;;;;;;;17.68;66.37;97966.88;5017138;28;19937;-61
2023/09/17 06:31:57;;;;;;;;;;;;;;;17.69;66.52;97973.19;5009291;28;19929;-61
2023/09/17 06:34:27;;;;;;;;;;;;;;;17.69;66.41;97978.69;5001057;28;19926;-61
2023/09/17 06:36:55;;;;;;;;;;;;;;;17.67;66.73;97979.03;5016920;28;19980;-61
2023/09/17 06:39:23;;;;;;;;;;;;;;;17.69;66.65;97981.44;5007687;28;20596;-61
2023/09/17 06:41:50;;;;;;;;;;;;;;;17.67;66.48;97979.03;5008976;28;19928;-61
2023/09/17 06:44:19;;;;;;;;;;;;;;;17.70;66.71;97975.59;5025739;28;19967;-61
2023/09/17 06:46:46;;;;;;;;;;;;;;;17.72;66.72;97975.22;5030753;28;19925;-61
2023/09/17 06:49:14;;;;;;;;;;;;;;;17.73;66.46;97974.09;5031940;28;20387;-61
2023/09/17 06:51:43;;;;;;;;;;;;;;;17.74;67.08;97982.00;5035871;28;19925;-61
2023/09/17 06:54:11;;;;;;;;;;;;;;;17.78;67.12;97977.34;5028262;28;20366;-61
2023/09/17 06:56:39;;;;;;;;;;;;;;;17.80;66.89;97980.56;5023280;28;20375;-61
2023/09/17 06:59:07;;;;;;;;;;;;;;;17.86;66.88;97972.06;5028827;28;19925;-61
2023/09/17 07:01:35;;;;;;;;;;;;;;;17.90;66.78;97973.72;5029341;28;20264;-61
2023/09/17 07:04:02;;;;;;;;;;;;;;;17.93;66.59;97984.00;5028867;28;20321;-61
2023/09/17 07:06:30;;;;;;;;;;;;;;;17.97;66.72;97990.38;5027953;28;19931;-61
2023/09/17 07:08:59;;;;;;;;;;;;;;;18.03;66.54;97994.44;5028888;28;20210;-61
2023/09/17 07:11:27;;;;;;;;;;;;;;;18.10;66.49;97996.53;5025620;28;19929;-61
2023/09/17 07:13:55;;;;;;;;;;;;;;;18.14;66.47;98005.69;5030580;28;19925;-61
2023/09/17 07:16:26;;;;;;;;;;;;;;;18.19;66.50;97991.66;5029244;28;20299;-61
2023/09/17 07:18:54;;;;;;;;;;;;;;;18.25;66.52;97992.97;5030299;28;19929;-61
2023/09/17 07:21:21;;;;;;;;;;;;;;;18.29;66.58;97984.78;5024500;28;19925;-61
2023/09/17 07:23:54;;;;;;;;;;;;;;;18.33;66.45;97980.16;5026356;28;19926;-62
2023/09/17 07:26:24;;;;;;;;;;;;;;;18.37;66.58;97986.53;5024822;28;19964;-61
2023/09/17 07:28:52;;;;;;;;;;;;;;;18.44;67.02;97977.66;5028396;28;19926;-61
2023/09/17 07:31:19;;;;;;;;;;;;;;;18.48;67.21;97982.06;5025881;28;19925;-61
2023/09/17 07:33:47;;;;;;;;;;;;;;;18.55;66.91;97986.91;5027408;28;20436;-61
2023/09/17 07:36:15;;;;;;;;;;;;;;;18.64;66.79;97990.22;5027676;28;19933;-61
2023/09/17 07:38:43;;;;;;;;;;;;;;;18.70;66.84;97988.81;5025832;28;19940;-61
2023/09/17 07:41:11;;;;;;;;;;;;;;;18.77;66.82;97988.97;5022729;28;19935;-61
2023/09/17 07:43:40;;;;;;;;;;;;;;;18.86;66.83;97986.00;5027266;28;19929;-61
2023/09/17 07:46:11;;;;;;;;;;;;;;;18.95;66.80;97988.50;5030252;28;19925;-61
2023/09/17 07:48:39;;;;;;;;;;;;;;;19.05;66.92;97985.16;5028166;28;19929;-61
2023/09/17 07:51:07;;;;;;;;;;;;;;;19.11;67.26;97989.19;5028429;28;20428;-61
2023/09/17 07:53:35;;;;;;;;;;;;;;;19.10;67.56;97982.91;5027634;28;19964;-61
2023/09/17 07:56:03;;;;;;;;;;;;;;;19.28;67.31;97991.50;5029960;28;19936;-61
2023/09/17 07:58:31;;;;;;;;;;;;;;;19.38;67.00;97990.06;5035952;28;20355;-61
2023/09/17 08:01:01;;;;;;;;;;;;;;;19.50;65.83;97980.84;5029649;28;19928;-61
2023/09/17 08:03:29;;;;;;;;;;;;;;;19.62;65.72;97983.44;5029966;28;19929;-61
2023/09/17 08:05:57;;;;;;;;;;;;;;;19.75;65.88;97978.50;5028027;28;19955;-61
2023/09/17 08:08:25;;;;;;;;;;;;;;;19.84;65.23;97973.53;5022862;28;20298;-61
2023/09/17 08:10:53;;;;;;;;;;;;;;;19.89;65.26;97976.75;5028892;28;19929;-61
2023/09/17 08:13:21;;;;;;;;;;;;;;;19.94;65.04;97972.09;5026127;28;19929;-61
2023/09/17 08:15:50;;;;;;;;;;;;;;;19.96;64.93;97978.03;5027465;28;19925;-61
2023/09/17 08:18:19;;;;;;;;;;;;;;;20.00;64.23;97978.88;5025591;28;19925;-62
2023/09/17 08:20:47;;;;;;;;;;;;;;;20.05;63.95;97976.59;5029345;28;19931;-61
2023/09/17 08:23:15;;;;;;;;;;;;;;;20.11;63.51;97982.59;5029548;28;19925;-61
2023/09/17 08:25:43;;;;;;;;;;;;;;;20.16;63.43;97985.03;5026445;28;19925;-61
2023/09/17 08:28:15;;;;;;;;;;;;;;;20.19;63.38;97989.81;5028395;28;19933;-61
2023/09/17 08:30:43;;;;;;;;;;;;;;;20.24;63.85;97989.50;5029890;28;19925;-61
2023/09/17 08:33:11;;;;;;;;;;;;;;;20.27;63.36;97994.25;5028853;28;19932;-61
2023/09/17 08:35:40;;;;;;;;;;;;;;;20.33;63.09;98000.22;5028972;28;19925;-61
2023/09/17 08:38:08;;;;;;;;;;;;;;;20.37;63.89;98001.88;5027232;28;19925;-61
2023/09/17 08:40:39;;;;;;;;;;;;;;;20.36;63.08;97994.75;5023088;28;20401;-61
2023/09/17 08:43:06;;;;;;;;;;;;;;;20.37;63.56;97990.84;5029037;28;19932;-61
2023/09/17 08:45:34;;;;;;;;;;;;;;;20.37;63.51;97996.34;5028572;28;19971;-61
2023/09/17 08:48:02;;;;;;;;;;;;;;;20.38;63.52;97997.94;5024859;28;20375;-61
2023/09/17 08:50:30;;;;;;;;;;;;;;;20.42;63.44;97998.00;5029415;28;19929;-61
2023/09/17 08:53:01;;;;;;;;;;;;;;;20.47;64.18;97999.66;5030278;28;19931;-61
2023/09/17 08:55:30;;;;;;;;;;;;;;;20.51;63.99;97998.53;5025449;28;19925;-61
2023/09/17 08:58:00;;;;;;;;;;;;;;;20.59;63.68;97993.91;5025163;28;19932;-61
2023/09/17 09:00:27;;;;;;;;;;;;;;;20.69;63.56;97998.75;5023025;28;20827;-62
2023/09/17 09:02:57;;;;;;;;;;;;;;;20.73;63.32;97996.84;5024028;28;19925;-61
2023/09/17 09:05:25;;;;;;;;;;;;;;;20.78;63.08;97993.75;5030959;28;19929;-61
2023/09/17 09:07:55;;;;;;;;;;;;;;;20.84;62.72;97995.00;5023626;28;19933;-61
2023/09/17 09:10:25;;;;;;;;;;;;;;;20.91;62.29;97997.81;5027536;28;19925;-61
2023/09/17 09:12:52;;;;;;;;;;;;;;;20.99;62.31;97995.16;5025106;28;20409;-61
2023/09/17 09:15:20;;;;;;;;;;;;;;;21.10;61.84;98004.34;5023009;28;19936;-61
2023/09/17 09:17:48;;;;;;;;;;;;;;;21.19;61.46;97999.31;5024112;28;19928;-61
2023/09/17 09:20:16;;;;;;;;;;;;;;;21.31;62.85;98004.59;5025566;28;19930;-61
2023/09/17 09:22:45;;;;;;;;;;;;;;;21.36;61.53;98001.50;5027666;28;19972;-61
2023/09/17 09:25:13;;;;;;;;;;;;;;;21.49;60.33;98006.75;5028609;28;19932;-62
2023/09/17 09:27:42;;;;;;;;;;;;;;;21.55;61.59;98000.47;5027770;28;19926;-62
2023/09/17 09:30:11;;;;;;;;;;;;;;;21.58;60.43;98007.22;5030656;28;19933;-62
2023/09/17 09:32:39;;;;;;;;;;;;;;;21.66;61.32;98004.13;5026736;28;19939;-62
2023/09/17 09:35:07;;;;;;;;;;;;;;;21.76;61.94;98001.81;5029830;28;20294;-61
2023/09/17 09:37:35;;;;;;;;;;;;;;;21.82;61.23;98003.06;5031459;28;19932;-61
2023/09/17 09:40:02;;;;;;;;;;;;;;;21.87;61.55;97997.16;5028217;28;20341;-61
2023/09/17 09:42:30;;;;;;;;;;;;;;;21.92;60.90;97994.84;5027404;28;19933;-61
2023/09/17 09:44:59;;;;;;;;;;;;;;;21.96;59.70;98000.41;5025568;28;20410;-61
2023/09/17 09:47:27;;;;;;;;;;;;;;;22.03;59.37;97999.66;5027170;28;19933;-61
2023/09/17 09:49:54;;;;;;;;;;;;;;;22.08;59.90;98010.38;5022653;28;20108;-61
2023/09/17 09:52:23;;;;;;;;;;;;;;;22.13;59.53;98004.50;5008532;28;19936;-61
2023/09/17 09:54:51;;;;;;;;;;;;;;;22.17;60.72;98005.31;5026226;28;19956;-61
2023/09/17 09:57:19;;;;;;;;;;;;;;;22.21;59.23;98000.59;5015175;28;19932;-61
2023/09/17 09:59:47;;;;;;;;;;;;;;;22.28;59.44;98006.19;5012803;28;19926;-61
2023/09/17 10:02:20;;;;;;;;;;;;;;;22.31;59.92;97997.09;5017856;28;22548;-61
2023/09/17 10:04:48;;;;;;;;;;;;;;;22.31;59.50;97988.78;5022924;28;19933;-61
2023/09/17 10:07:16;;;;;;;;;;;;;;;22.44;59.20;98000.34;5029528;28;19932;-61
2023/09/17 10:09:44;;;;;;;;;;;;;;;22.47;58.42;98003.09;5025998;28;19925;-61
2023/09/17 10:12:12;;;;;;;;;;;;;;;22.52;60.73;97993.63;5023219;28;19925;-61
2023/09/17 10:14:39;;;;;;;;;;;;;;;22.56;59.32;97979.81;5030902;28;19932;-61
2023/09/17 10:17:10;;;;;;;;;;;;;;;22.60;58.37;97988.94;5025858;28;19984;-61
2023/09/17 10:19:39;;;;;;;;;;;;;;;22.63;58.76;97983.41;5025448;28;19929;-61
2023/09/17 10:22:08;;;;;;;;;;;;;;;22.72;59.81;97983.06;5030085;28;19975;-61
2023/09/17 10:24:37;;;;;;;;;;;;;;;22.84;58.98;97981.91;5029404;28;19986;-61
2023/09/17 10:27:05;;;;;;;;;;;;;;;22.81;58.22;97977.94;5021489;28;19933;-61
2023/09/17 10:29:33;;;;;;;;;;;;;;;22.84;58.81;97977.16;5029217;28;19939;-61
2023/09/17 10:32:01;;;;;;;;;;;;;;;22.81;57.28;97979.94;5026396;28;20272;-62
2023/09/17 10:34:30;;;;;;;;;;;;;;;22.80;57.98;97984.69;5026375;28;20294;-62
2023/09/17 10:36:59;;;;;;;;;;;;;;;22.79;58.27;97979.50;5030957;28;19925;-61
2023/09/17 10:39:27;;;;;;;;;;;;;;;22.84;58.63;97976.34;5029635;28;19925;-60
2023/09/17 10:41:55;;;;;;;;;;;;;;;22.87;59.02;97976.38;5029866;28;19929;-61
2023/09/17 10:44:23;;;;;;;;;;;;;;;22.95;58.46;97978.00;5031864;28;19928;-61
2023/09/17 10:46:51;;;;;;;;;;;;;;;22.99;57.58;97976.03;5029375;28;19928;-61
2023/09/17 10:49:19;;;;;;;;;;;;;;;22.99;57.02;97975.25;5022148;28;19929;-62
2023/09/17 10:51:46;;;;;;;;;;;;;;;23.00;57.19;97974.84;5023869;28;19947;-62
2023/09/17 10:54:15;;;;;;;;;;;;;;;22.99;57.15;97969.72;5029003;28;19933;-61
2023/09/17 10:56:45;;;;;;;;;;;;;;;23.07;57.54;97970.53;5032738;28;19963;-62
2023/09/17 10:59:14;;;;;;;;;;;;;;;23.17;57.66;97962.25;5026998;28;19948;-61
2023/09/17 11:01:42;;;;;;;;;;;;;;;23.23;57.28;97962.63;5030031;28;19933;-62
2023/09/17 11:04:11;;;;;;;;;;;;;;;23.26;56.44;97959.06;5028613;28;19933;-61
2023/09/17 11:06:38;;;;;;;;;;;;;;;23.23;55.88;97954.31;5025418;28;19956;-62
2023/09/17 11:09:06;;;;;;;;;;;;;;;23.22;56.62;97955.50;5031711;28;19951;-62
2023/09/17 11:11:35;;;;;;;;;;;;;;;23.24;56.55;97945.59;5028650;28;19929;-62
2023/09/17 11:14:04;;;;;;;;;;;;;;;23.22;56.26;97944.41;5017859;28;19933;-62
2023/09/17 11:16:32;;;;;;;;;;;;;;;23.23;56.91;97948.78;5025844;28;19929;-62
2023/09/17 11:19:06;;;;;;;;;;;;;;;23.22;56.62;97952.72;5024219;28;19932;-61
2023/09/17 11:21:35;;;;;;;;;;;;;;;23.30;56.88;97953.53;5023912;28;19933;-61
2023/09/17 11:24:04;;;;;;;;;;;;;;;23.30;56.03;97948.78;5008768;28;20011;-61
2023/09/17 11:26:37;;;;;;;;;;;;;;;23.30;55.78;97948.78;5019570;28;19983;-62
2023/09/17 11:29:06;;;;;;;;;;;;;;;23.32;55.16;97946.41;5026439;28;19986;-63
2023/09/17 11:31:35;;;;;;;;;;;;;;;23.37;55.85;97948.78;5025059;28;19925;-62
2023/09/17 11:34:05;;;;;;;;;;;;;;;23.43;56.01;97949.97;5026210;28;20054;-62
2023/09/17 11:36:34;;;;;;;;;;;;;;;23.47;55.92;97948.00;5028393;28;19939;-61
2023/09/17 11:39:06;;;;;;;;;;;;;;;23.50;55.07;97947.22;5029946;28;19933;-62
2023/09/17 11:41:35;;;;;;;;;;;;;;;23.56;55.50;97950.38;5025977;28;19998;-63
2023/09/17 11:44:05;;;;;;;;;;;;;;;23.68;55.31;97946.44;5027660;28;19933;-59
2023/09/17 11:46:34;;;;;;;;;;;;;;;23.69;54.75;97940.47;5024156;28;19929;-62
2023/09/17 11:49:02;;;;;;;;;;;;;;;23.75;55.08;97929.78;5027376;28;20542;-60
2023/09/17 11:51:30;;;;;;;;;;;;;;;23.86;54.64;97935.31;5031481;28;19925;-60
2023/09/17 11:54:00;;;;;;;;;;;;;;;23.88;54.12;97928.19;5031479;28;19931;-60
2023/09/17 11:56:29;;;;;;;;;;;;;;;23.83;53.94;97925.81;5027000;28;19940;-60
2023/09/17 11:58:57;;;;;;;;;;;;;;;23.83;54.75;97916.72;5029641;28;19925;-65
2023/09/17 12:01:28;;;;;;;;;;;;;;;23.80;54.23;97912.72;5026460;28;19979;-62
2023/09/17 12:03:56;;;;;;;;;;;;;;;23.78;54.22;97921.47;5019373;28;20446;-62
2023/09/17 12:06:23;;;;;;;;;;;;;;;23.89;53.68;97913.13;5025113;28;19966;-61
2023/09/17 12:08:51;;;;;;;;;;;;;;;23.92;53.56;97915.09;5022887;28;19925;-64
2023/09/17 12:11:22;;;;;;;;;;;;;;;24.01;52.99;97909.13;5018014;28;20391;-63
2023/09/17 12:13:53;;;;;;;;;;;;;;;24.00;53.08;97911.09;5018127;28;20086;-62
2023/09/17 12:16:24;;;;;;;;;;;;;;;24.03;52.87;97906.75;5024428;28;19933;-62
2023/09/17 12:18:54;;;;;;;;;;;;;;;23.99;52.89;97890.09;5026000;28;19933;-62
2023/09/17 12:21:32;;;;;;;;;;;;;;;24.00;53.53;97899.22;5024296;28;19995;-62
2023/09/17 12:24:05;;;;;;;;;;;;;;;23.95;53.54;97903.19;5029627;28;19925;-62
2023/09/17 12:26:37;;;;;;;;;;;;;;;23.96;52.92;97896.44;5029531;28;19987;-62
2023/09/17 12:29:09;;;;;;;;;;;;;;;23.98;53.07;97893.28;5025552;28;19925;-62
2023/09/17 12:31:36;;;;;;;;;;;;;;;24.06;53.19;97894.84;5026953;28;19929;-61
2023/09/17 12:34:06;;;;;;;;;;;;;;;24.14;52.79;97887.28;5027064;28;19936;-62
2023/09/17 12:36:33;;;;;;;;;;;;;;;24.09;53.02;97879.38;5023611;28;19925;-62
2023/09/17 12:39:01;;;;;;;;;;;;;;;24.14;53.20;97884.53;5027423;28;19936;-61
2023/09/17 12:41:28;;;;;;;;;;;;;;;24.16;53.04;97882.13;5030867;28;19979;-62
2023/09/17 12:44:07;;;;;;;;;;;;;;;24.14;52.86;97878.97;5030635;28;19932;-62
2023/09/17 12:46:35;;;;;;;;;;;;;;;24.14;53.41;97878.97;5028420;28;19925;-63
2023/09/17 12:49:03;;;;;;;;;;;;;;;24.12;54.08;97875.78;5029008;28;19929;-62
2023/09/17 12:51:32;;;;;;;;;;;;;;;24.08;53.15;97875.03;5026429;28;19931;-62
2023/09/17 12:54:00;;;;;;;;;;;;;;;24.03;52.74;97874.25;5027465;28;19953;-62
2023/09/17 12:56:30;;;;;;;;;;;;;;;24.05;53.40;97871.06;5028896;28;19925;-62